sensor_id;sensor_type;location;lat;lon;timestamp;temperature;humidity
57088;DHT22;42965;52.846;6.614;2022-12-20T00:00:51;9.10;99.90
57088;DHT22;42965;52.846;6.614;2022-12-20T00:03:18;9.00;99.90
57088;DHT22;42965;52.846;6.614;2022-12-20T00:05:45;9.00;99.90
57088;DHT22;42965;52.846;6.614;2022-12-20T00:08:23;9.00;99.90
57088;DHT22;42965;52.846;6.614;2022-12-20T00:10:49;9.00;99.90
57088;DHT22;42965;52.846;6.614;2022-12-20T00:13:21;9.10;99.90
57088;DHT22;42965;52.846;6.614;2022-12-20T00:15:49;9.00;99.90
57088;DHT22;42965;52.846;6.614;2022-12-20T00:18:16;9.00;99.90
57088;DHT22;42965;52.846;6.614;2022-12-20T00:20:42;9.10;99.90
57088;DHT22;42965;52.846;6.614;2022-12-20T00:23:08;9.20;99.90
57088;DHT22;42965;52.846;6.614;2022-12-20T00:25:35;9.20;99.90
57088;DHT22;42965;52.846;6.614;2022-12-20T00:28:01;9.20;99.90
57088;DHT22;42965;52.846;6.614;2022-12-20T00:30:29;9.30;99.90
57088;DHT22;42965;52.846;6.614;2022-12-20T00:32:55;9.30;99.90
57088;DHT22;42965;52.846;6.614;2022-12-20T00:35:23;9.30;99.90
57088;DHT22;42965;52.846;6.614;2022-12-20T00:37:51;9.30;99.90
57088;DHT22;42965;52.846;6.614;2022-12-20T00:40:17;9.30;99.90
57088;DHT22;42965;52.846;6.614;2022-12-20T00:42:45;9.40;99.90
57088;DHT22;42965;52.846;6.614;2022-12-20T00:45:11;9.50;99.90
57088;DHT22;42965;52.846;6.614;2022-12-20T00:47:37;9.50;99.90
57088;DHT22;42965;52.846;6.614;2022-12-20T00:50:04;9.50;99.90
57088;DHT22;42965;52.846;6.614;2022-12-20T00:52:34;9.50;99.90
57088;DHT22;42965;52.846;6.614;2022-12-20T00:55:00;9.50;99.90
57088;DHT22;42965;52.846;6.614;2022-12-20T00:57:26;9.50;99.90
57088;DHT22;42965;52.846;6.614;2022-12-20T00:59:52;9.40;99.90
57088;DHT22;42965;52.846;6.614;2022-12-20T01:02:18;9.50;99.90
57088;DHT22;42965;52.846;6.614;2022-12-20T01:04:48;9.50;99.90
57088;DHT22;42965;52.846;6.614;2022-12-20T01:07:14;9.40;99.90
57088;DHT22;42965;52.846;6.614;2022-12-20T01:09:41;9.40;99.90
57088;DHT22;42965;52.846;6.614;2022-12-20T01:12:07;9.40;99.90
57088;DHT22;42965;52.846;6.614;2022-12-20T01:14:33;9.40;99.90
57088;DHT22;42965;52.846;6.614;2022-12-20T01:17:00;9.40;99.90
57088;DHT22;42965;52.846;6.614;2022-12-20T01:19:26;9.40;99.90
57088;DHT22;42965;52.846;6.614;2022-12-20T01:22:00;9.30;99.90
57088;DHT22;42965;52.846;6.614;2022-12-20T01:24:27;9.30;99.90
57088;DHT22;42965;52.846;6.614;2022-12-20T01:26:53;9.30;99.90
57088;DHT22;42965;52.846;6.614;2022-12-20T01:29:19;9.30;99.90
57088;DHT22;42965;52.846;6.614;2022-12-20T01:31:46;9.30;99.90
57088;DHT22;42965;52.846;6.614;2022-12-20T01:34:13;9.40;99.90
57088;DHT22;42965;52.846;6.614;2022-12-20T01:36:40;9.40;99.90
57088;DHT22;42965;52.846;6.614;2022-12-20T01:39:14;9.40;99.90
57088;DHT22;42965;52.846;6.614;2022-12-20T01:41:42;9.40;99.90
57088;DHT22;42965;52.846;6.614;2022-12-20T01:46:46;9.30;99.90
57088;DHT22;42965;52.846;6.614;2022-12-20T01:51:49;9.30;99.90
57088;DHT22;42965;52.846;6.614;2022-12-20T01:54:28;9.40;99.90
57088;DHT22;42965;52.846;6.614;2022-12-20T01:57:02;9.40;99.90
57088;DHT22;42965;52.846;6.614;2022-12-20T01:59:32;9.40;99.90
57088;DHT22;42965;52.846;6.614;2022-12-20T02:02:06;9.40;99.90
57088;DHT22;42965;52.846;6.614;2022-12-20T02:04:35;9.40;99.90
57088;DHT22;42965;52.846;6.614;2022-12-20T02:07:02;9.40;99.90
57088;DHT22;42965;52.846;6.614;2022-12-20T02:09:31;9.40;99.90
57088;DHT22;42965;52.846;6.614;2022-12-20T02:25:45;9.50;99.90
57088;DHT22;42965;52.846;6.614;2022-12-20T02:31:06;9.50;99.90
57088;DHT22;42965;52.846;6.614;2022-12-20T02:33:35;9.50;99.90
57088;DHT22;42965;52.846;6.614;2022-12-20T02:36:03;9.60;99.90
57088;DHT22;42965;52.846;6.614;2022-12-20T02:38:30;9.60;99.90
57088;DHT22;42965;52.846;6.614;2022-12-20T02:41:21;9.50;99.90
57088;DHT22;42965;52.846;6.614;2022-12-20T02:43:54;9.60;99.90
57088;DHT22;42965;52.846;6.614;2022-12-20T02:46:41;9.50;99.90
57088;DHT22;42965;52.846;6.614;2022-12-20T02:49:14;9.50;99.90
57088;DHT22;42965;52.846;6.614;2022-12-20T02:51:44;9.50;99.90
57088;DHT22;42965;52.846;6.614;2022-12-20T02:54:19;9.50;99.90
57088;DHT22;42965;52.846;6.614;2022-12-20T02:57:04;9.50;99.90
57088;DHT22;42965;52.846;6.614;2022-12-20T02:59:38;9.40;99.90
57088;DHT22;42965;52.846;6.614;2022-12-20T03:02:07;9.40;99.90
57088;DHT22;42965;52.846;6.614;2022-12-20T03:04:36;9.30;99.90
57088;DHT22;42965;52.846;6.614;2022-12-20T03:07:06;9.30;99.90
57088;DHT22;42965;52.846;6.614;2022-12-20T03:09:36;9.30;99.90
57088;DHT22;42965;52.846;6.614;2022-12-20T03:12:03;9.20;99.90
57088;DHT22;42965;52.846;6.614;2022-12-20T03:14:32;9.20;99.90
57088;DHT22;42965;52.846;6.614;2022-12-20T03:17:01;9.20;99.90
57088;DHT22;42965;52.846;6.614;2022-12-20T03:19:27;9.20;99.90
57088;DHT22;42965;52.846;6.614;2022-12-20T03:21:54;9.20;99.90
57088;DHT22;42965;52.846;6.614;2022-12-20T03:24:21;9.20;99.90
57088;DHT22;42965;52.846;6.614;2022-12-20T03:26:48;9.20;99.90
57088;DHT22;42965;52.846;6.614;2022-12-20T03:29:15;9.20;99.90
57088;DHT22;42965;52.846;6.614;2022-12-20T03:31:41;9.10;99.90
57088;DHT22;42965;52.846;6.614;2022-12-20T03:34:08;9.10;99.90
57088;DHT22;42965;52.846;6.614;2022-12-20T03:36:34;9.10;99.90
57088;DHT22;42965;52.846;6.614;2022-12-20T03:39:03;9.10;99.90
57088;DHT22;42965;52.846;6.614;2022-12-20T03:41:38;9.10;99.90
57088;DHT22;42965;52.846;6.614;2022-12-20T03:44:05;9.20;99.90
57088;DHT22;42965;52.846;6.614;2022-12-20T03:46:31;9.20;99.90
57088;DHT22;42965;52.846;6.614;2022-12-20T03:48:58;9.20;99.90
57088;DHT22;42965;52.846;6.614;2022-12-20T03:51:25;9.30;99.90
57088;DHT22;42965;52.846;6.614;2022-12-20T03:53:57;9.30;99.90
57088;DHT22;42965;52.846;6.614;2022-12-20T03:56:36;9.30;99.90
57088;DHT22;42965;52.846;6.614;2022-12-20T03:59:03;9.30;99.90
57088;DHT22;42965;52.846;6.614;2022-12-20T04:01:30;9.30;99.90
57088;DHT22;42965;52.846;6.614;2022-12-20T04:04:02;9.40;99.90
57088;DHT22;42965;52.846;6.614;2022-12-20T04:06:28;9.50;99.90
57088;DHT22;42965;52.846;6.614;2022-12-20T04:08:55;9.50;99.90
57088;DHT22;42965;52.846;6.614;2022-12-20T04:11:27;9.50;99.90
57088;DHT22;42965;52.846;6.614;2022-12-20T04:14:14;9.50;99.90
57088;DHT22;42965;52.846;6.614;2022-12-20T04:16:41;9.50;99.90
57088;DHT22;42965;52.846;6.614;2022-12-20T04:19:09;9.50;99.90
57088;DHT22;42965;52.846;6.614;2022-12-20T04:21:42;9.50;99.90
57088;DHT22;42965;52.846;6.614;2022-12-20T04:24:08;9.50;99.90
57088;DHT22;42965;52.846;6.614;2022-12-20T04:27:01;9.50;99.90
57088;DHT22;42965;52.846;6.614;2022-12-20T04:29:28;9.40;99.90
57088;DHT22;42965;52.846;6.614;2022-12-20T04:31:56;9.40;99.90
57088;DHT22;42965;52.846;6.614;2022-12-20T04:34:22;9.40;99.90
57088;DHT22;42965;52.846;6.614;2022-12-20T04:36:48;9.50;99.90
57088;DHT22;42965;52.846;6.614;2022-12-20T04:39:23;9.50;99.90
57088;DHT22;42965;52.846;6.614;2022-12-20T04:42:11;9.50;99.90
57088;DHT22;42965;52.846;6.614;2022-12-20T04:44:37;9.50;99.90
57088;DHT22;42965;52.846;6.614;2022-12-20T04:47:04;9.50;99.90
57088;DHT22;42965;52.846;6.614;2022-12-20T04:49:31;9.40;99.90
57088;DHT22;42965;52.846;6.614;2022-12-20T04:51:58;9.50;99.90
57088;DHT22;42965;52.846;6.614;2022-12-20T04:54:46;9.60;99.90
57088;DHT22;42965;52.846;6.614;2022-12-20T04:57:16;9.50;99.90
57088;DHT22;42965;52.846;6.614;2022-12-20T04:59:44;9.60;99.90
57088;DHT22;42965;52.846;6.614;2022-12-20T05:02:12;9.70;99.90
57088;DHT22;42965;52.846;6.614;2022-12-20T05:04:46;9.80;99.90
57088;DHT22;42965;52.846;6.614;2022-12-20T05:07:13;9.80;99.90
57088;DHT22;42965;52.846;6.614;2022-12-20T05:09:44;9.80;99.90
57088;DHT22;42965;52.846;6.614;2022-12-20T05:12:10;9.80;99.90
57088;DHT22;42965;52.846;6.614;2022-12-20T05:14:37;9.90;99.90
57088;DHT22;42965;52.846;6.614;2022-12-20T05:17:03;9.90;99.90
57088;DHT22;42965;52.846;6.614;2022-12-20T05:19:29;9.90;99.90
57088;DHT22;42965;52.846;6.614;2022-12-20T05:21:56;9.90;99.90
57088;DHT22;42965;52.846;6.614;2022-12-20T05:24:49;10.00;99.90
57088;DHT22;42965;52.846;6.614;2022-12-20T05:27:37;10.00;99.90
57088;DHT22;42965;52.846;6.614;2022-12-20T05:30:04;10.00;99.90
57088;DHT22;42965;52.846;6.614;2022-12-20T05:32:31;10.10;99.90
57088;DHT22;42965;52.846;6.614;2022-12-20T05:34:57;10.00;99.90
57088;DHT22;42965;52.846;6.614;2022-12-20T05:37:44;10.10;99.90
57088;DHT22;42965;52.846;6.614;2022-12-20T05:40:36;10.10;99.90
57088;DHT22;42965;52.846;6.614;2022-12-20T05:43:23;10.10;99.90
57088;DHT22;42965;52.846;6.614;2022-12-20T05:46:10;10.10;99.90
57088;DHT22;42965;52.846;6.614;2022-12-20T05:48:49;10.10;99.90
57088;DHT22;42965;52.846;6.614;2022-12-20T05:51:16;10.10;99.90
57088;DHT22;42965;52.846;6.614;2022-12-20T05:53:57;10.10;99.90
57088;DHT22;42965;52.846;6.614;2022-12-20T05:56:44;10.10;99.90
57088;DHT22;42965;52.846;6.614;2022-12-20T05:59:11;10.00;99.90
57088;DHT22;42965;52.846;6.614;2022-12-20T06:01:38;10.00;99.90
57088;DHT22;42965;52.846;6.614;2022-12-20T06:04:06;9.90;99.90
57088;DHT22;42965;52.846;6.614;2022-12-20T06:06:33;10.00;99.90
57088;DHT22;42965;52.846;6.614;2022-12-20T06:09:00;10.00;99.90
57088;DHT22;42965;52.846;6.614;2022-12-20T06:11:38;10.00;99.90
57088;DHT22;42965;52.846;6.614;2022-12-20T06:14:08;10.10;99.90
57088;DHT22;42965;52.846;6.614;2022-12-20T06:16:41;10.10;99.90
57088;DHT22;42965;52.846;6.614;2022-12-20T06:19:10;10.10;99.90
57088;DHT22;42965;52.846;6.614;2022-12-20T06:21:37;10.20;99.90
57088;DHT22;42965;52.846;6.614;2022-12-20T06:24:04;10.20;99.90
57088;DHT22;42965;52.846;6.614;2022-12-20T06:26:41;10.20;99.90
57088;DHT22;42965;52.846;6.614;2022-12-20T06:29:08;10.10;99.90
57088;DHT22;42965;52.846;6.614;2022-12-20T06:31:55;10.20;99.90
57088;DHT22;42965;52.846;6.614;2022-12-20T06:34:21;10.30;99.90
57088;DHT22;42965;52.846;6.614;2022-12-20T06:36:48;10.30;99.90
57088;DHT22;42965;52.846;6.614;2022-12-20T06:39:21;10.30;99.90
57088;DHT22;42965;52.846;6.614;2022-12-20T06:42:00;10.30;99.90
57088;DHT22;42965;52.846;6.614;2022-12-20T06:44:27;10.30;99.90
57088;DHT22;42965;52.846;6.614;2022-12-20T06:46:54;10.20;99.90
57088;DHT22;42965;52.846;6.614;2022-12-20T06:49:31;10.10;99.90
57088;DHT22;42965;52.846;6.614;2022-12-20T06:52:07;10.10;99.90
57088;DHT22;42965;52.846;6.614;2022-12-20T06:54:48;10.10;99.90
57088;DHT22;42965;52.846;6.614;2022-12-20T06:57:15;10.10;99.90
57088;DHT22;42965;52.846;6.614;2022-12-20T06:59:43;10.00;99.90
57088;DHT22;42965;52.846;6.614;2022-12-20T07:02:13;10.00;99.90
57088;DHT22;42965;52.846;6.614;2022-12-20T07:04:40;10.00;99.90
57088;DHT22;42965;52.846;6.614;2022-12-20T07:07:07;10.00;99.90
57088;DHT22;42965;52.846;6.614;2022-12-20T07:09:33;10.00;99.90
57088;DHT22;42965;52.846;6.614;2022-12-20T07:12:19;10.00;99.90
57088;DHT22;42965;52.846;6.614;2022-12-20T07:14:45;10.10;99.90
57088;DHT22;42965;52.846;6.614;2022-12-20T07:17:12;10.00;99.90
57088;DHT22;42965;52.846;6.614;2022-12-20T07:19:38;10.10;99.90
57088;DHT22;42965;52.846;6.614;2022-12-20T07:22:05;10.10;99.90
57088;DHT22;42965;52.846;6.614;2022-12-20T07:24:41;10.10;99.90
57088;DHT22;42965;52.846;6.614;2022-12-20T07:27:09;10.10;99.90
57088;DHT22;42965;52.846;6.614;2022-12-20T07:29:35;10.10;99.90
57088;DHT22;42965;52.846;6.614;2022-12-20T07:32:05;10.10;99.90
57088;DHT22;42965;52.846;6.614;2022-12-20T07:34:32;10.20;99.90
57088;DHT22;42965;52.846;6.614;2022-12-20T07:36:58;10.20;99.90
57088;DHT22;42965;52.846;6.614;2022-12-20T07:39:24;10.20;99.90
57088;DHT22;42965;52.846;6.614;2022-12-20T07:41:54;10.20;99.90
57088;DHT22;42965;52.846;6.614;2022-12-20T07:44:22;10.30;99.90
57088;DHT22;42965;52.846;6.614;2022-12-20T07:46:51;10.40;99.90
57088;DHT22;42965;52.846;6.614;2022-12-20T07:49:18;10.20;99.90
57088;DHT22;42965;52.846;6.614;2022-12-20T07:51:48;10.20;99.90
57088;DHT22;42965;52.846;6.614;2022-12-20T07:54:22;10.20;99.90
57088;DHT22;42965;52.846;6.614;2022-12-20T07:56:54;10.10;99.90
57088;DHT22;42965;52.846;6.614;2022-12-20T07:59:30;10.10;99.90
57088;DHT22;42965;52.846;6.614;2022-12-20T08:02:00;10.10;99.90
57088;DHT22;42965;52.846;6.614;2022-12-20T08:04:28;10.10;99.90
57088;DHT22;42965;52.846;6.614;2022-12-20T08:06:57;10.20;99.90
57088;DHT22;42965;52.846;6.614;2022-12-20T08:09:27;10.20;99.90
57088;DHT22;42965;52.846;6.614;2022-12-20T08:11:54;10.10;99.90
57088;DHT22;42965;52.846;6.614;2022-12-20T08:14:21;10.20;99.90
57088;DHT22;42965;52.846;6.614;2022-12-20T08:16:47;10.20;99.90
57088;DHT22;42965;52.846;6.614;2022-12-20T08:19:14;10.20;99.90
57088;DHT22;42965;52.846;6.614;2022-12-20T08:21:44;10.20;99.90
57088;DHT22;42965;52.846;6.614;2022-12-20T08:24:11;10.20;99.90
57088;DHT22;42965;52.846;6.614;2022-12-20T08:26:41;10.30;99.90
57088;DHT22;42965;52.846;6.614;2022-12-20T08:29:08;10.30;99.90
57088;DHT22;42965;52.846;6.614;2022-12-20T08:31:39;10.30;99.90
57088;DHT22;42965;52.846;6.614;2022-12-20T08:34:05;10.30;99.90
57088;DHT22;42965;52.846;6.614;2022-12-20T08:36:31;10.30;99.90
57088;DHT22;42965;52.846;6.614;2022-12-20T08:39:04;10.30;99.90
57088;DHT22;42965;52.846;6.614;2022-12-20T08:41:32;10.30;99.90
57088;DHT22;42965;52.846;6.614;2022-12-20T08:44:00;10.30;99.90
57088;DHT22;42965;52.846;6.614;2022-12-20T08:46:27;10.30;99.90
57088;DHT22;42965;52.846;6.614;2022-12-20T08:49:05;10.30;99.90
57088;DHT22;42965;52.846;6.614;2022-12-20T08:51:35;10.20;99.90
57088;DHT22;42965;52.846;6.614;2022-12-20T08:54:01;10.20;99.90
57088;DHT22;42965;52.846;6.614;2022-12-20T08:56:27;10.20;99.90
57088;DHT22;42965;52.846;6.614;2022-12-20T08:58:54;10.30;99.90
57088;DHT22;42965;52.846;6.614;2022-12-20T09:01:20;10.20;99.90
57088;DHT22;42965;52.846;6.614;2022-12-20T09:03:48;10.30;99.90
57088;DHT22;42965;52.846;6.614;2022-12-20T09:06:17;10.30;99.90
57088;DHT22;42965;52.846;6.614;2022-12-20T09:08:43;10.30;99.90
57088;DHT22;42965;52.846;6.614;2022-12-20T09:11:16;10.30;99.90
57088;DHT22;42965;52.846;6.614;2022-12-20T09:13:45;10.30;99.90
57088;DHT22;42965;52.846;6.614;2022-12-20T09:16:18;10.30;99.90
57088;DHT22;42965;52.846;6.614;2022-12-20T09:18:48;10.30;99.90
57088;DHT22;42965;52.846;6.614;2022-12-20T09:21:15;10.30;99.90
57088;DHT22;42965;52.846;6.614;2022-12-20T09:23:42;10.30;99.90
57088;DHT22;42965;52.846;6.614;2022-12-20T09:26:13;10.30;99.90
57088;DHT22;42965;52.846;6.614;2022-12-20T09:28:41;10.30;99.90
57088;DHT22;42965;52.846;6.614;2022-12-20T09:31:16;10.30;99.90
57088;DHT22;42965;52.846;6.614;2022-12-20T09:33:43;10.30;99.90
57088;DHT22;42965;52.846;6.614;2022-12-20T09:36:16;10.30;99.90
57088;DHT22;42965;52.846;6.614;2022-12-20T09:38:43;10.30;99.90
57088;DHT22;42965;52.846;6.614;2022-12-20T09:43:47;10.30;99.90
57088;DHT22;42965;52.846;6.614;2022-12-20T09:46:19;10.40;99.90
57088;DHT22;42965;52.846;6.614;2022-12-20T09:48:46;10.40;99.90
57088;DHT22;42965;52.846;6.614;2022-12-20T09:56:31;10.30;99.90
57088;DHT22;42965;52.846;6.614;2022-12-20T09:59:11;10.30;99.90
57088;DHT22;42965;52.846;6.614;2022-12-20T10:01:43;10.30;99.90
57088;DHT22;42965;52.846;6.614;2022-12-20T10:04:24;10.30;99.90
57088;DHT22;42965;52.846;6.614;2022-12-20T10:07:20;10.30;99.90
57088;DHT22;42965;52.846;6.614;2022-12-20T10:15:39;10.20;99.90
57088;DHT22;42965;52.846;6.614;2022-12-20T10:21:23;10.20;99.90
57088;DHT22;42965;52.846;6.614;2022-12-20T10:23:59;10.20;99.90
57088;DHT22;42965;52.846;6.614;2022-12-20T10:26:30;10.10;99.90
57088;DHT22;42965;52.846;6.614;2022-12-20T10:28:57;10.10;99.90
57088;DHT22;42965;52.846;6.614;2022-12-20T10:31:24;10.10;99.90
57088;DHT22;42965;52.846;6.614;2022-12-20T10:33:50;10.10;99.90
57088;DHT22;42965;52.846;6.614;2022-12-20T10:36:22;10.10;99.90
57088;DHT22;42965;52.846;6.614;2022-12-20T10:38:53;10.10;99.90
57088;DHT22;42965;52.846;6.614;2022-12-20T10:41:23;10.10;99.90
57088;DHT22;42965;52.846;6.614;2022-12-20T10:43:59;10.10;99.90
57088;DHT22;42965;52.846;6.614;2022-12-20T10:46:59;10.10;99.90
57088;DHT22;42965;52.846;6.614;2022-12-20T10:49:30;10.10;99.90
57088;DHT22;42965;52.846;6.614;2022-12-20T10:52:12;10.10;99.90
57088;DHT22;42965;52.846;6.614;2022-12-20T10:54:45;10.10;99.90
57088;DHT22;42965;52.846;6.614;2022-12-20T10:59:45;10.10;99.90
57088;DHT22;42965;52.846;6.614;2022-12-20T11:04:58;10.20;99.90
57088;DHT22;42965;52.846;6.614;2022-12-20T11:07:31;10.20;99.90
57088;DHT22;42965;52.846;6.614;2022-12-20T11:10:16;10.20;99.90
57088;DHT22;42965;52.846;6.614;2022-12-20T11:12:57;10.20;99.90
57088;DHT22;42965;52.846;6.614;2022-12-20T11:15:32;10.30;99.90
57088;DHT22;42965;52.846;6.614;2022-12-20T11:18:27;10.20;99.90
57088;DHT22;42965;52.846;6.614;2022-12-20T11:24:50;10.20;99.90
57088;DHT22;42965;52.846;6.614;2022-12-20T11:30:08;10.20;99.90
57088;DHT22;42965;52.846;6.614;2022-12-20T11:32:41;10.30;99.90
57088;DHT22;42965;52.846;6.614;2022-12-20T11:38:51;10.30;99.90
57088;DHT22;42965;52.846;6.614;2022-12-20T11:41:15;10.40;99.90
57088;DHT22;42965;52.846;6.614;2022-12-20T11:52:41;10.40;99.90
57088;DHT22;42965;52.846;6.614;2022-12-20T11:55:18;10.40;99.90
57088;DHT22;42965;52.846;6.614;2022-12-20T12:00:27;10.40;99.90
57088;DHT22;42965;52.846;6.614;2022-12-20T12:03:00;10.40;99.90
57088;DHT22;42965;52.846;6.614;2022-12-20T12:05:39;10.40;99.90
57088;DHT22;42965;52.846;6.614;2022-12-20T12:08:08;10.40;99.90
57088;DHT22;42965;52.846;6.614;2022-12-20T12:10:40;10.40;99.90
57088;DHT22;42965;52.846;6.614;2022-12-20T12:13:14;10.30;99.90
57088;DHT22;42965;52.846;6.614;2022-12-20T12:15:54;10.30;99.90
57088;DHT22;42965;52.846;6.614;2022-12-20T12:18:31;10.30;99.90
57088;DHT22;42965;52.846;6.614;2022-12-20T12:26:16;10.30;99.90
57088;DHT22;42965;52.846;6.614;2022-12-20T12:28:45;10.30;99.90
57088;DHT22;42965;52.846;6.614;2022-12-20T12:31:16;10.30;99.90
57088;DHT22;42965;52.846;6.614;2022-12-20T12:33:49;10.30;99.90
57088;DHT22;42965;52.846;6.614;2022-12-20T12:45:20;10.30;99.90
57088;DHT22;42965;52.846;6.614;2022-12-20T12:50:49;10.30;99.90
57088;DHT22;42965;52.846;6.614;2022-12-20T12:53:47;10.30;99.90
57088;DHT22;42965;52.846;6.614;2022-12-20T13:07:23;10.30;99.90
57088;DHT22;42965;52.846;6.614;2022-12-20T13:09:51;10.30;99.90
57088;DHT22;42965;52.846;6.614;2022-12-20T13:17:55;10.30;99.90
57088;DHT22;42965;52.846;6.614;2022-12-20T13:20:33;10.30;99.90
57088;DHT22;42965;52.846;6.614;2022-12-20T13:25:39;10.30;99.90
57088;DHT22;42965;52.846;6.614;2022-12-20T13:30:44;10.30;99.90
57088;DHT22;42965;52.846;6.614;2022-12-20T13:38:57;10.30;99.90
57088;DHT22;42965;52.846;6.614;2022-12-20T13:41:46;10.30;99.90
57088;DHT22;42965;52.846;6.614;2022-12-20T13:49:24;10.30;99.90
57088;DHT22;42965;52.846;6.614;2022-12-20T13:54:42;10.30;99.90
57088;DHT22;42965;52.846;6.614;2022-12-20T13:57:14;10.40;99.90
57088;DHT22;42965;52.846;6.614;2022-12-20T13:59:43;10.40;99.90
57088;DHT22;42965;52.846;6.614;2022-12-20T14:02:26;10.40;99.90
57088;DHT22;42965;52.846;6.614;2022-12-20T14:05:06;10.40;99.90
57088;DHT22;42965;52.846;6.614;2022-12-20T14:07:54;10.40;99.90
57088;DHT22;42965;52.846;6.614;2022-12-20T14:10:26;10.30;99.90
57088;DHT22;42965;52.846;6.614;2022-12-20T14:12:54;10.30;99.90
57088;DHT22;42965;52.846;6.614;2022-12-20T14:15:26;10.40;99.90
57088;DHT22;42965;52.846;6.614;2022-12-20T14:17:52;10.40;99.90
57088;DHT22;42965;52.846;6.614;2022-12-20T14:20:30;10.40;99.90
57088;DHT22;42965;52.846;6.614;2022-12-20T14:23:03;10.40;99.90
57088;DHT22;42965;52.846;6.614;2022-12-20T14:25:41;10.40;99.90
57088;DHT22;42965;52.846;6.614;2022-12-20T14:28:20;10.40;99.90
57088;DHT22;42965;52.846;6.614;2022-12-20T14:30:48;10.50;99.90
57088;DHT22;42965;52.846;6.614;2022-12-20T14:33:20;10.50;99.90
57088;DHT22;42965;52.846;6.614;2022-12-20T14:35:50;10.50;99.90
57088;DHT22;42965;52.846;6.614;2022-12-20T14:38:28;10.50;99.90
57088;DHT22;42965;52.846;6.614;2022-12-20T14:40:55;10.50;99.90
57088;DHT22;42965;52.846;6.614;2022-12-20T14:43:32;10.50;99.90
57088;DHT22;42965;52.846;6.614;2022-12-20T14:46:14;10.50;99.90
57088;DHT22;42965;52.846;6.614;2022-12-20T14:48:42;10.50;99.90
57088;DHT22;42965;52.846;6.614;2022-12-20T14:51:08;10.50;99.90
57088;DHT22;42965;52.846;6.614;2022-12-20T14:53:36;10.50;99.90
57088;DHT22;42965;52.846;6.614;2022-12-20T14:56:05;10.60;99.90
57088;DHT22;42965;52.846;6.614;2022-12-20T14:58:38;10.60;99.90
57088;DHT22;42965;52.846;6.614;2022-12-20T15:01:19;10.50;99.90
57088;DHT22;42965;52.846;6.614;2022-12-20T15:03:54;10.60;99.90
57088;DHT22;42965;52.846;6.614;2022-12-20T15:06:54;10.60;99.90
57088;DHT22;42965;52.846;6.614;2022-12-20T15:09:20;10.60;99.90
57088;DHT22;42965;52.846;6.614;2022-12-20T15:11:47;10.60;99.90
57088;DHT22;42965;52.846;6.614;2022-12-20T15:14:33;10.60;99.90
57088;DHT22;42965;52.846;6.614;2022-12-20T15:17:12;10.60;99.90
57088;DHT22;42965;52.846;6.614;2022-12-20T15:19:39;10.60;99.90
57088;DHT22;42965;52.846;6.614;2022-12-20T15:22:13;10.60;99.90
57088;DHT22;42965;52.846;6.614;2022-12-20T15:24:40;10.60;99.90
57088;DHT22;42965;52.846;6.614;2022-12-20T15:27:12;10.60;99.90
57088;DHT22;42965;52.846;6.614;2022-12-20T15:29:39;10.60;99.90
57088;DHT22;42965;52.846;6.614;2022-12-20T15:32:25;10.60;99.90
57088;DHT22;42965;52.846;6.614;2022-12-20T15:34:54;10.60;99.90
57088;DHT22;42965;52.846;6.614;2022-12-20T15:37:20;10.60;99.90
57088;DHT22;42965;52.846;6.614;2022-12-20T15:39:47;10.60;99.90
57088;DHT22;42965;52.846;6.614;2022-12-20T15:42:16;10.50;99.90
57088;DHT22;42965;52.846;6.614;2022-12-20T15:44:43;10.50;99.90
57088;DHT22;42965;52.846;6.614;2022-12-20T15:47:15;10.60;99.90
57088;DHT22;42965;52.846;6.614;2022-12-20T15:49:42;10.60;99.90
57088;DHT22;42965;52.846;6.614;2022-12-20T15:52:17;10.60;99.90
57088;DHT22;42965;52.846;6.614;2022-12-20T15:54:44;10.60;99.90
57088;DHT22;42965;52.846;6.614;2022-12-20T15:57:13;10.60;99.90
57088;DHT22;42965;52.846;6.614;2022-12-20T15:59:40;10.60;99.90
57088;DHT22;42965;52.846;6.614;2022-12-20T16:02:18;10.60;99.90
57088;DHT22;42965;52.846;6.614;2022-12-20T16:04:46;10.60;99.90
57088;DHT22;42965;52.846;6.614;2022-12-20T16:07:12;10.60;99.90
57088;DHT22;42965;52.846;6.614;2022-12-20T16:09:39;10.60;99.90
57088;DHT22;42965;52.846;6.614;2022-12-20T16:12:30;10.60;99.90
57088;DHT22;42965;52.846;6.614;2022-12-20T16:14:57;10.60;99.90
57088;DHT22;42965;52.846;6.614;2022-12-20T16:17:24;10.60;99.90
57088;DHT22;42965;52.846;6.614;2022-12-20T16:19:50;10.60;99.90
57088;DHT22;42965;52.846;6.614;2022-12-20T16:22:19;10.60;99.90
57088;DHT22;42965;52.846;6.614;2022-12-20T16:24:47;10.60;99.90
57088;DHT22;42965;52.846;6.614;2022-12-20T16:27:14;10.50;99.90
57088;DHT22;42965;52.846;6.614;2022-12-20T16:29:40;10.60;99.90
57088;DHT22;42965;52.846;6.614;2022-12-20T16:32:15;10.50;99.90
57088;DHT22;42965;52.846;6.614;2022-12-20T16:34:42;10.50;99.90
57088;DHT22;42965;52.846;6.614;2022-12-20T16:37:09;10.50;99.90
57088;DHT22;42965;52.846;6.614;2022-12-20T16:39:39;10.50;99.90
57088;DHT22;42965;52.846;6.614;2022-12-20T16:42:24;10.50;99.90
57088;DHT22;42965;52.846;6.614;2022-12-20T16:44:51;10.50;99.90
57088;DHT22;42965;52.846;6.614;2022-12-20T16:47:18;10.50;99.90
57088;DHT22;42965;52.846;6.614;2022-12-20T16:49:44;10.60;99.90
57088;DHT22;42965;52.846;6.614;2022-12-20T16:52:15;10.50;99.90
57088;DHT22;42965;52.846;6.614;2022-12-20T16:54:43;10.60;99.90
57088;DHT22;42965;52.846;6.614;2022-12-20T16:57:09;10.60;99.90
57088;DHT22;42965;52.846;6.614;2022-12-20T16:59:36;10.60;99.90
57088;DHT22;42965;52.846;6.614;2022-12-20T17:02:33;10.60;99.90
57088;DHT22;42965;52.846;6.614;2022-12-20T17:04:58;10.50;99.90
57088;DHT22;42965;52.846;6.614;2022-12-20T17:07:25;10.60;99.90
57088;DHT22;42965;52.846;6.614;2022-12-20T17:09:52;10.60;99.90
57088;DHT22;42965;52.846;6.614;2022-12-20T17:12:20;10.60;99.90
57088;DHT22;42965;52.846;6.614;2022-12-20T17:14:47;10.60;99.90
57088;DHT22;42965;52.846;6.614;2022-12-20T17:17:15;10.60;99.90
57088;DHT22;42965;52.846;6.614;2022-12-20T17:19:42;10.60;99.90
57088;DHT22;42965;52.846;6.614;2022-12-20T17:22:10;10.60;99.90
57088;DHT22;42965;52.846;6.614;2022-12-20T17:24:37;10.60;99.90
57088;DHT22;42965;52.846;6.614;2022-12-20T17:27:04;10.60;99.90
57088;DHT22;42965;52.846;6.614;2022-12-20T17:29:31;10.60;99.90
57088;DHT22;42965;52.846;6.614;2022-12-20T17:31:57;10.60;99.90
57088;DHT22;42965;52.846;6.614;2022-12-20T17:34:26;10.60;99.90
57088;DHT22;42965;52.846;6.614;2022-12-20T17:36:54;10.60;99.90
57088;DHT22;42965;52.846;6.614;2022-12-20T17:39:22;10.50;99.90
57088;DHT22;42965;52.846;6.614;2022-12-20T17:41:48;10.50;99.90
57088;DHT22;42965;52.846;6.614;2022-12-20T17:44:18;10.50;99.90
57088;DHT22;42965;52.846;6.614;2022-12-20T17:46:45;10.50;99.90
57088;DHT22;42965;52.846;6.614;2022-12-20T17:49:13;10.50;99.90
57088;DHT22;42965;52.846;6.614;2022-12-20T17:51:40;10.50;99.90
57088;DHT22;42965;52.846;6.614;2022-12-20T17:54:17;10.50;99.90
57088;DHT22;42965;52.846;6.614;2022-12-20T17:56:44;10.50;99.90